createdAt,value
2019-03-29T00:00:02.619Z,26.50
2019-03-29T00:01:02.593Z,27.10
2019-03-29T00:02:02.566Z,27.60
2019-03-29T00:03:02.536Z,26.40
2019-03-29T00:04:02.517Z,27.10
2019-03-29T00:05:02.484Z,28.70
2019-03-29T00:06:02.457Z,27.70
2019-03-29T00:07:02.430Z,24.80
2019-03-29T00:08:02.402Z,26.60
2019-03-29T00:09:02.377Z,27.90
2019-03-29T00:10:02.350Z,28.40
2019-03-29T00:11:02.323Z,28.10
2019-03-29T00:12:02.296Z,26.70
2019-03-29T00:13:02.269Z,26.30
2019-03-29T00:14:02.257Z,24.20
2019-03-29T00:15:02.216Z,25.50
2019-03-29T00:16:02.189Z,23.80
2019-03-29T00:17:02.162Z,27.40
2019-03-29T00:18:02.133Z,26.30
2019-03-29T00:19:02.318Z,28.80
2019-03-29T00:20:02.083Z,27.20
2019-03-29T00:21:02.060Z,27.30
2019-03-29T00:22:02.032Z,29.30
2019-03-29T00:23:02.003Z,29.00
2019-03-29T00:24:07.134Z,27.20
2019-03-29T00:25:01.947Z,26.00
2019-03-29T00:26:01.918Z,27.10
2019-03-29T00:27:01.893Z,29.20
2019-03-29T00:28:01.869Z,25.90
2019-03-29T00:29:03.101Z,29.60
2019-03-29T00:30:01.816Z,28.00
2019-03-29T00:31:01.785Z,28.30
2019-03-29T00:32:01.760Z,28.10
2019-03-29T00:33:01.734Z,28.20
2019-03-29T00:34:01.704Z,32.90
2019-03-29T00:35:01.681Z,28.20
2019-03-29T00:36:01.651Z,28.50
2019-03-29T00:37:01.627Z,25.40
2019-03-29T00:38:01.598Z,23.30
2019-03-29T00:39:01.572Z,29.70
2019-03-29T00:40:01.543Z,27.80
2019-03-29T00:41:01.517Z,24.50
2019-03-29T00:42:01.492Z,27.30
2019-03-29T00:43:01.463Z,30.70
2019-03-29T00:44:01.439Z,26.60
2019-03-29T00:45:01.410Z,27.70
2019-03-29T00:46:01.381Z,32.10
2019-03-29T00:47:01.355Z,29.80
2019-03-29T00:48:01.327Z,28.10
2019-03-29T00:49:01.301Z,31.00
2019-03-29T00:50:01.278Z,27.30
2019-03-29T00:51:01.246Z,27.70
2019-03-29T00:52:01.221Z,30.20
2019-03-29T00:53:01.193Z,27.30
2019-03-29T00:54:01.940Z,27.40
2019-03-29T00:55:01.138Z,31.20
2019-03-29T00:56:01.113Z,28.00
2019-03-29T00:57:01.087Z,30.30
2019-03-29T00:58:01.055Z,34.00
2019-03-29T00:59:01.030Z,32.00
2019-03-29T01:00:01.012Z,28.20
2019-03-29T01:01:00.975Z,30.80
2019-03-29T01:02:00.948Z,30.00
2019-03-29T01:03:00.928Z,31.00
2019-03-29T01:04:00.898Z,30.30
2019-03-29T01:05:00.867Z,32.70
2019-03-29T01:06:00.840Z,27.80
2019-03-29T01:07:00.814Z,35.90
2019-03-29T01:08:07.820Z,32.30
2019-03-29T01:09:00.762Z,31.50
2019-03-29T01:10:00.733Z,32.00
2019-03-29T01:11:00.706Z,29.60
2019-03-29T01:12:00.678Z,32.20
2019-03-29T01:13:00.652Z,33.40
2019-03-29T01:14:00.626Z,27.80
2019-03-29T01:15:00.599Z,30.40
2019-03-29T01:16:01.167Z,30.60
2019-03-29T01:17:00.545Z,30.60
2019-03-29T01:18:00.517Z,33.30
2019-03-29T01:19:00.491Z,32.60
2019-03-29T01:20:00.538Z,32.20
2019-03-29T01:21:00.437Z,30.50
2019-03-29T01:22:00.411Z,32.10
2019-03-29T01:23:00.382Z,32.40
2019-03-29T01:24:00.357Z,27.30
2019-03-29T01:25:00.432Z,28.60
2019-03-29T01:26:01.094Z,32.30
2019-03-29T01:27:00.274Z,27.90
2019-03-29T01:28:00.248Z,33.50
2019-03-29T01:29:00.220Z,29.80
2019-03-29T01:30:00.279Z,30.30
2019-03-29T01:31:00.165Z,33.60
2019-03-29T01:32:00.139Z,31.70
2019-03-29T01:33:00.111Z,30.90
2019-03-29T01:34:00.091Z,31.60
2019-03-29T01:35:00.101Z,30.60
2019-03-29T01:36:00.033Z,28.90
2019-03-29T01:37:00.003Z,32.10
2019-03-29T01:37:59.977Z,33.70
2019-03-29T01:38:59.949Z,31.30
2019-03-29T01:39:59.923Z,28.60
2019-03-29T01:41:00.999Z,33.40
2019-03-29T01:41:59.870Z,30.40
2019-03-29T01:42:59.840Z,28.20
2019-03-29T01:43:59.816Z,29.40
2019-03-29T01:44:59.787Z,32.00
2019-03-29T01:45:59.762Z,31.40
2019-03-29T01:46:59.734Z,34.00
2019-03-29T01:47:59.706Z,35.10
2019-03-29T01:48:59.681Z,28.30
2019-03-29T01:49:59.651Z,32.10
2019-03-29T01:50:59.625Z,31.80
2019-03-29T01:51:59.597Z,34.90
2019-03-29T01:52:59.570Z,30.90
2019-03-29T01:53:59.543Z,30.80
2019-03-29T01:54:59.515Z,32.30
2019-03-29T01:55:59.489Z,30.70
2019-03-29T01:56:59.462Z,31.80
2019-03-29T01:57:59.434Z,31.80
2019-03-29T01:58:59.407Z,33.00
2019-03-29T01:59:59.380Z,30.00
2019-03-29T02:00:59.354Z,34.50
2019-03-29T02:01:59.325Z,29.30
2019-03-29T02:02:59.299Z,29.10
2019-03-29T02:03:59.273Z,30.70
2019-03-29T02:04:59.245Z,30.30
2019-03-29T02:05:59.217Z,27.20
2019-03-29T02:06:59.190Z,30.30
2019-03-29T02:07:59.165Z,32.90
2019-03-29T02:08:59.137Z,25.70
2019-03-29T02:09:59.110Z,28.60
2019-03-29T02:10:59.085Z,35.80
2019-03-29T02:11:59.057Z,36.40
2019-03-29T02:12:59.217Z,33.00
2019-03-29T02:13:59.002Z,30.10
2019-03-29T02:14:58.975Z,31.40
2019-03-29T02:15:58.947Z,31.40
2019-03-29T02:16:58.935Z,33.70
2019-03-29T02:17:58.893Z,31.80
2019-03-29T02:18:58.869Z,31.10
2019-03-29T02:19:58.839Z,33.60
2019-03-29T02:20:58.814Z,30.60
2019-03-29T02:21:58.785Z,30.50
2019-03-29T02:22:58.762Z,35.30
2019-03-29T02:23:58.732Z,32.40
2019-03-29T02:24:58.705Z,32.00
2019-03-29T02:25:58.678Z,31.60
2019-03-29T02:26:58.653Z,31.80
2019-03-29T02:27:58.624Z,36.00
2019-03-29T02:28:58.598Z,30.90
2019-03-29T02:29:58.569Z,35.00
2019-03-29T02:30:59.680Z,34.00
2019-03-29T02:31:58.532Z,32.00
2019-03-29T02:32:58.489Z,30.10
2019-03-29T02:33:58.462Z,32.50
2019-03-29T02:34:58.440Z,34.90
2019-03-29T02:35:58.406Z,30.60
2019-03-29T02:36:58.408Z,31.00
2019-03-29T02:37:58.353Z,32.80
2019-03-29T02:38:59.196Z,29.90
2019-03-29T02:39:58.300Z,29.60
2019-03-29T02:40:58.274Z,30.80
2019-03-29T02:41:58.243Z,30.40
2019-03-29T02:42:58.233Z,32.80
2019-03-29T02:43:58.191Z,31.60
2019-03-29T02:44:58.164Z,30.80
2019-03-29T02:45:58.218Z,29.10
2019-03-29T02:46:58.107Z,30.10
2019-03-29T02:47:58.084Z,29.80
2019-03-29T02:48:58.056Z,34.10
2019-03-29T02:49:58.028Z,31.40
2019-03-29T02:50:58.000Z,32.00
2019-03-29T02:51:57.976Z,35.80
2019-03-29T02:52:57.947Z,30.70
2019-03-29T02:53:57.918Z,28.20
2019-03-29T02:54:57.892Z,30.60
2019-03-29T02:55:57.868Z,32.60
2019-03-29T02:56:57.838Z,31.40
2019-03-29T02:57:57.815Z,31.80
2019-03-29T02:58:57.783Z,28.80
2019-03-29T02:59:57.756Z,28.40
2019-03-29T03:00:57.728Z,26.30
2019-03-29T03:01:57.706Z,27.10
2019-03-29T03:02:57.674Z,33.40
2019-03-29T03:03:57.647Z,30.90
2019-03-29T03:04:57.620Z,29.70
2019-03-29T03:05:57.594Z,30.00
2019-03-29T03:06:57.567Z,32.50
2019-03-29T03:07:57.538Z,29.50
2019-03-29T03:09:12.468Z,28.90
2019-03-29T03:09:57.483Z,29.90
2019-03-29T03:10:57.465Z,30.90
2019-03-29T03:11:57.433Z,29.50
2019-03-29T03:12:57.401Z,27.40
2019-03-29T03:13:57.375Z,31.80
2019-03-29T03:14:57.352Z,28.80
2019-03-29T03:15:57.321Z,32.10
2019-03-29T03:16:57.296Z,31.90
2019-03-29T03:17:57.277Z,31.40
2019-03-29T03:18:57.240Z,30.90
2019-03-29T03:19:57.212Z,30.60
2019-03-29T03:20:57.187Z,31.20
2019-03-29T03:21:57.158Z,28.90
2019-03-29T03:22:57.128Z,32.90
2019-03-29T03:23:57.107Z,28.90
2019-03-29T03:24:57.144Z,30.00
2019-03-29T03:25:57.048Z,30.30
2019-03-29T03:26:57.029Z,29.00
2019-03-29T03:27:57.002Z,34.10
2019-03-29T03:28:56.966Z,30.40
2019-03-29T03:29:56.940Z,32.80
2019-03-29T03:30:56.912Z,31.80
2019-03-29T03:31:56.886Z,32.30
2019-03-29T03:32:56.867Z,30.80
2019-03-29T03:33:56.837Z,32.80
2019-03-29T03:34:56.822Z,31.00
2019-03-29T03:35:56.779Z,35.50
2019-03-29T03:36:56.751Z,35.30
2019-03-29T03:37:56.720Z,32.60
2019-03-29T03:38:56.864Z,35.20
2019-03-29T03:39:56.667Z,35.40
2019-03-29T03:40:56.641Z,32.20
2019-03-29T03:41:56.613Z,30.50
2019-03-29T03:42:56.604Z,30.20
2019-03-29T03:43:56.566Z,32.70
2019-03-29T03:44:56.536Z,33.40
2019-03-29T03:45:56.504Z,32.10
2019-03-29T03:46:56.481Z,34.90
2019-03-29T03:47:56.449Z,31.60
2019-03-29T03:48:56.427Z,35.80
2019-03-29T03:50:00.683Z,32.60
2019-03-29T03:50:56.370Z,30.10
2019-03-29T03:51:56.345Z,37.70
2019-03-29T03:52:56.321Z,34.10
2019-03-29T03:53:56.288Z,41.00
2019-03-29T03:54:56.267Z,32.60
2019-03-29T03:55:56.232Z,33.40
2019-03-29T03:56:56.208Z,31.60
2019-03-29T03:57:57.835Z,35.20
2019-03-29T03:58:56.150Z,34.30
2019-03-29T03:59:56.124Z,32.20
2019-03-29T04:00:56.215Z,31.60
2019-03-29T04:01:56.069Z,32.10
2019-03-29T04:02:56.049Z,35.30
2019-03-29T04:03:56.017Z,37.10
2019-03-29T04:04:55.990Z,31.80
2019-03-29T04:05:55.977Z,35.90
2019-03-29T04:06:55.934Z,32.50
2019-03-29T04:07:55.907Z,34.90
2019-03-29T04:08:55.887Z,32.60
2019-03-29T04:09:55.854Z,36.10
2019-03-29T04:10:55.826Z,32.30
2019-03-29T04:11:55.802Z,31.30
2019-03-29T04:12:55.773Z,35.80
2019-03-29T04:13:55.746Z,33.40
2019-03-29T04:14:55.716Z,35.90
2019-03-29T04:15:55.689Z,35.00
2019-03-29T04:16:55.668Z,35.60
2019-03-29T04:17:55.637Z,37.20
2019-03-29T04:18:55.607Z,35.80
2019-03-29T04:19:55.583Z,36.20
2019-03-29T04:20:55.553Z,40.20
2019-03-29T04:21:55.530Z,36.60
2019-03-29T04:22:55.500Z,39.90
2019-03-29T04:23:55.472Z,34.50
2019-03-29T04:24:55.450Z,37.90
2019-03-29T04:25:55.416Z,37.50
2019-03-29T04:26:55.389Z,33.90
2019-03-29T04:27:55.363Z,35.60
2019-03-29T04:29:04.322Z,37.70
2019-03-29T04:29:55.308Z,35.50
2019-03-29T04:30:55.284Z,37.50
2019-03-29T04:31:55.255Z,42.00
2019-03-29T04:32:55.230Z,39.60
2019-03-29T04:33:55.198Z,38.90
2019-03-29T04:34:55.171Z,36.70
2019-03-29T04:35:55.151Z,32.50
2019-03-29T04:36:55.117Z,32.40
2019-03-29T04:37:55.087Z,39.50
2019-03-29T04:38:55.065Z,35.50
2019-03-29T04:40:07.075Z,37.50
2019-03-29T04:40:55.006Z,34.80
2019-03-29T04:41:54.979Z,35.80
2019-03-29T04:42:54.951Z,41.80
2019-03-29T04:43:54.925Z,33.90
2019-03-29T04:44:54.900Z,35.60
2019-03-29T04:45:54.869Z,34.80
2019-03-29T04:46:54.844Z,33.70
2019-03-29T04:47:54.815Z,37.80
2019-03-29T04:48:54.789Z,34.50
2019-03-29T04:49:54.761Z,35.80
2019-03-29T04:50:54.732Z,35.50
2019-03-29T04:51:54.705Z,37.50
2019-03-29T04:52:54.679Z,37.00
2019-03-29T04:53:54.654Z,35.20
2019-03-29T04:54:54.623Z,37.20
2019-03-29T04:55:54.602Z,36.90
2019-03-29T04:56:54.571Z,38.40
2019-03-29T04:57:54.544Z,37.20
2019-03-29T04:58:54.514Z,35.00
2019-03-29T04:59:54.489Z,41.70
2019-03-29T05:00:54.469Z,37.90
2019-03-29T05:01:54.432Z,36.40
2019-03-29T05:02:54.405Z,35.30
2019-03-29T05:03:54.379Z,38.50
2019-03-29T05:04:54.351Z,36.50
2019-03-29T05:05:54.324Z,43.40
2019-03-29T05:06:54.301Z,35.80
2019-03-29T05:07:54.269Z,34.90
2019-03-29T05:08:54.291Z,35.20
2019-03-29T05:09:54.218Z,35.10
2019-03-29T05:10:54.198Z,40.10
2019-03-29T05:11:54.160Z,34.60
2019-03-29T05:12:54.133Z,36.60
2019-03-29T05:13:54.107Z,37.50
2019-03-29T05:14:54.077Z,36.60
2019-03-29T05:15:54.051Z,35.90
2019-03-29T05:16:54.025Z,40.10
2019-03-29T05:17:53.997Z,40.10
2019-03-29T05:18:53.972Z,42.80
2019-03-29T05:19:53.942Z,43.30
2019-03-29T05:20:53.915Z,37.80
2019-03-29T05:21:53.888Z,38.50
2019-03-29T05:22:53.860Z,37.30
2019-03-29T05:23:53.832Z,37.50
2019-03-29T05:24:53.805Z,35.90
2019-03-29T05:25:53.856Z,32.60
2019-03-29T05:26:53.751Z,35.10
2019-03-29T05:27:53.724Z,39.30
2019-03-29T05:28:53.698Z,42.60
2019-03-29T05:29:53.668Z,36.10
2019-03-29T05:30:53.642Z,35.50
2019-03-29T05:31:53.835Z,36.90
2019-03-29T05:32:53.589Z,35.20
2019-03-29T05:33:53.560Z,36.20
2019-03-29T05:34:53.534Z,37.50
2019-03-29T05:35:53.507Z,38.40
2019-03-29T05:36:53.480Z,36.80
2019-03-29T05:37:53.452Z,32.50
2019-03-29T05:38:53.425Z,36.10
2019-03-29T05:39:53.398Z,32.60
2019-03-29T05:40:53.370Z,33.00
2019-03-29T05:41:53.342Z,33.00
2019-03-29T05:42:53.318Z,34.20
2019-03-29T05:43:53.291Z,32.80
2019-03-29T05:44:53.266Z,40.30
2019-03-29T05:45:53.235Z,37.10
2019-03-29T05:46:53.209Z,37.80
2019-03-29T05:47:53.186Z,37.40
2019-03-29T05:48:53.155Z,35.10
2019-03-29T05:49:53.127Z,34.40
2019-03-29T05:50:53.099Z,40.20
2019-03-29T05:51:53.076Z,33.70
2019-03-29T05:52:53.045Z,35.70
2019-03-29T05:53:53.018Z,38.90
2019-03-29T05:54:52.993Z,35.70
2019-03-29T05:55:52.964Z,35.70
2019-03-29T05:56:52.940Z,31.80
2019-03-29T05:57:52.912Z,32.80
2019-03-29T05:58:52.883Z,38.00
2019-03-29T05:59:52.857Z,36.00
2019-03-29T06:00:52.832Z,42.20
2019-03-29T06:01:52.804Z,37.40
2019-03-29T06:02:52.774Z,39.30
2019-03-29T06:03:52.751Z,37.70
2019-03-29T06:04:52.725Z,37.10
2019-03-29T06:05:52.694Z,34.40
2019-03-29T06:06:52.668Z,36.30
2019-03-29T06:07:52.640Z,39.00
2019-03-29T06:08:52.614Z,36.20
2019-03-29T06:09:52.586Z,38.40
2019-03-29T06:10:52.560Z,36.40
2019-03-29T06:11:52.533Z,40.30
2019-03-29T06:12:52.508Z,33.70
2019-03-29T06:13:52.478Z,35.90
2019-03-29T06:14:52.453Z,38.00
2019-03-29T06:15:52.437Z,32.30
2019-03-29T06:16:52.398Z,41.30
2019-03-29T06:17:52.370Z,37.00
2019-03-29T06:18:52.343Z,36.40
2019-03-29T06:19:52.317Z,33.80
2019-03-29T06:20:52.293Z,38.20
2019-03-29T06:21:52.266Z,34.30
2019-03-29T06:22:52.235Z,34.20
2019-03-29T06:23:52.211Z,35.40
2019-03-29T06:24:52.185Z,32.20
2019-03-29T06:25:52.154Z,31.00
2019-03-29T06:26:52.129Z,29.80
2019-03-29T06:27:52.101Z,30.80
2019-03-29T06:28:52.075Z,27.90
2019-03-29T06:29:52.051Z,30.60
2019-03-29T06:30:52.021Z,28.90
2019-03-29T06:31:51.994Z,29.10
2019-03-29T06:32:51.968Z,34.00
2019-03-29T06:33:51.940Z,29.50
2019-03-29T06:34:51.917Z,31.40
2019-03-29T06:35:51.887Z,24.00
2019-03-29T06:36:51.861Z,29.70
2019-03-29T06:37:51.834Z,25.20
2019-03-29T06:38:51.806Z,24.70
2019-03-29T06:39:51.783Z,22.40
2019-03-29T06:41:02.292Z,22.30
2019-03-29T06:41:51.728Z,23.30
2019-03-29T06:42:51.699Z,19.10
2019-03-29T06:43:51.674Z,22.80
2019-03-29T06:44:51.646Z,22.10
2019-03-29T06:45:51.621Z,21.30
2019-03-29T06:46:51.593Z,22.10
2019-03-29T06:47:51.566Z,21.80
2019-03-29T06:48:51.539Z,25.20
2019-03-29T06:49:51.513Z,21.90
2019-03-29T06:50:51.646Z,18.40
2019-03-29T06:51:51.462Z,18.20
2019-03-29T06:52:51.433Z,17.50
2019-03-29T06:53:52.741Z,18.50
2019-03-29T06:54:51.383Z,19.50
2019-03-29T06:55:51.366Z,17.10
2019-03-29T06:56:51.327Z,19.40
2019-03-29T06:57:51.299Z,20.90
2019-03-29T06:58:51.274Z,19.80
2019-03-29T06:59:51.247Z,15.80
2019-03-29T07:00:51.233Z,19.80
2019-03-29T07:01:51.192Z,18.40
2019-03-29T07:02:51.166Z,17.90
2019-03-29T07:03:51.140Z,17.10
2019-03-29T07:04:51.113Z,19.00
2019-03-29T07:05:51.086Z,19.90
2019-03-29T07:06:51.060Z,17.40
2019-03-29T07:07:51.037Z,17.70
2019-03-29T07:08:51.007Z,18.00
2019-03-29T07:09:50.982Z,17.60
2019-03-29T07:10:50.953Z,19.30
2019-03-29T07:11:50.931Z,18.70
2019-03-29T07:12:50.901Z,19.10
2019-03-29T07:13:57.218Z,19.00
2019-03-29T07:14:50.847Z,20.00
2019-03-29T07:15:50.822Z,17.20
2019-03-29T07:16:50.794Z,17.90
2019-03-29T07:17:50.767Z,15.80
2019-03-29T07:18:50.741Z,18.80
2019-03-29T07:19:50.716Z,17.10
2019-03-29T07:20:50.688Z,20.20
2019-03-29T07:21:50.661Z,16.70
2019-03-29T07:22:50.640Z,18.30
2019-03-29T07:23:50.609Z,16.40
2019-03-29T07:24:50.583Z,16.50
2019-03-29T07:25:50.555Z,16.20
2019-03-29T07:26:50.528Z,18.70
2019-03-29T07:27:52.351Z,16.80
2019-03-29T07:28:50.479Z,18.50
2019-03-29T07:29:50.450Z,18.90
2019-03-29T07:30:50.425Z,16.30
2019-03-29T07:31:53.060Z,16.00
2019-03-29T07:32:50.373Z,15.70
2019-03-29T07:33:50.349Z,17.10
2019-03-29T07:34:50.322Z,15.20
2019-03-29T07:35:50.296Z,15.10
2019-03-29T07:36:50.270Z,16.40
2019-03-29T07:37:50.245Z,15.80
2019-03-29T07:38:50.217Z,15.20
2019-03-29T07:39:53.660Z,15.30
2019-03-29T07:40:50.165Z,16.80
2019-03-29T07:41:50.138Z,15.40
2019-03-29T07:42:50.191Z,15.10
2019-03-29T07:43:50.091Z,15.20
2019-03-29T07:44:50.062Z,14.70
2019-03-29T07:45:50.034Z,15.50
2019-03-29T07:46:50.009Z,15.10
2019-03-29T07:47:49.984Z,15.00
2019-03-29T07:48:49.959Z,17.70
2019-03-29T07:49:49.932Z,14.10
2019-03-29T07:50:49.907Z,13.90
2019-03-29T07:51:49.881Z,13.30
2019-03-29T07:52:49.858Z,16.20
2019-03-29T07:53:49.832Z,13.50
2019-03-29T07:54:49.804Z,15.00
2019-03-29T07:55:49.778Z,14.00
2019-03-29T07:56:49.758Z,13.20
2019-03-29T07:57:49.728Z,14.20
2019-03-29T07:58:49.702Z,12.00
2019-03-29T07:59:49.878Z,14.00
2019-03-29T08:00:49.651Z,14.20
2019-03-29T08:01:49.626Z,14.70
2019-03-29T08:02:49.602Z,12.60
2019-03-29T08:03:51.292Z,12.10
2019-03-29T08:04:51.120Z,12.20
2019-03-29T08:05:49.529Z,15.20
2019-03-29T08:06:49.500Z,14.10
2019-03-29T08:07:49.479Z,11.50
2019-03-29T08:08:49.451Z,12.50
2019-03-29T08:09:49.425Z,9.50
2019-03-29T08:10:49.401Z,11.50
2019-03-29T08:11:49.376Z,9.30
2019-03-29T08:12:49.799Z,9.60
2019-03-29T08:13:49.327Z,10.10
2019-03-29T08:14:49.305Z,11.40
2019-03-29T08:15:49.278Z,9.60
2019-03-29T08:16:49.260Z,10.50
2019-03-29T08:17:49.230Z,10.40
2019-03-29T08:18:49.210Z,9.60
2019-03-29T08:20:02.479Z,10.00
2019-03-29T08:20:49.157Z,8.10
2019-03-29T08:21:49.197Z,8.00
2019-03-29T08:22:49.210Z,7.70
2019-03-29T08:23:49.085Z,9.10
2019-03-29T08:24:49.062Z,8.20
2019-03-29T08:25:49.035Z,6.70
2019-03-29T08:26:49.013Z,7.00
2019-03-29T08:27:48.987Z,6.60
2019-03-29T08:28:48.964Z,6.70
2019-03-29T08:29:48.941Z,8.10
2019-03-29T08:30:48.920Z,6.30
2019-03-29T08:31:48.894Z,7.30
2019-03-29T08:32:48.870Z,7.50
2019-03-29T08:33:48.844Z,9.40
2019-03-29T08:34:48.908Z,7.30
2019-03-29T08:35:48.800Z,6.50
2019-03-29T08:36:48.774Z,6.80
2019-03-29T08:37:48.749Z,8.40
2019-03-29T08:38:48.725Z,7.70
2019-03-29T08:39:48.702Z,6.70
2019-03-29T08:40:48.679Z,6.50
2019-03-29T08:41:59.531Z,8.30
2019-03-29T08:42:48.630Z,5.60
2019-03-29T08:43:48.612Z,6.40
2019-03-29T08:44:48.583Z,6.60
2019-03-29T08:45:48.560Z,5.40
2019-03-29T08:46:48.535Z,6.50
2019-03-29T08:47:48.514Z,7.70
2019-03-29T08:48:48.490Z,6.10
2019-03-29T08:49:48.464Z,7.50
2019-03-29T08:50:48.440Z,5.90
2019-03-29T08:51:48.420Z,5.80
2019-03-29T08:52:48.394Z,6.00
2019-03-29T08:53:48.371Z,5.10
2019-03-29T08:54:51.064Z,5.30
2019-03-29T08:55:48.328Z,5.60
2019-03-29T08:56:48.302Z,5.20
2019-03-29T08:57:48.338Z,4.20
2019-03-29T08:58:48.255Z,5.70
2019-03-29T08:59:48.232Z,4.20
2019-03-29T09:00:48.213Z,5.00
2019-03-29T09:01:48.185Z,4.90
2019-03-29T09:02:48.164Z,4.60
2019-03-29T09:04:01.452Z,3.40
2019-03-29T09:04:48.121Z,4.00
2019-03-29T09:05:48.096Z,3.50
2019-03-29T09:06:53.882Z,4.60
2019-03-29T09:07:48.051Z,5.30
2019-03-29T09:08:48.029Z,2.80
2019-03-29T09:09:48.006Z,3.40
2019-03-29T09:10:47.982Z,3.70
2019-03-29T09:11:47.962Z,3.60
2019-03-29T09:12:47.940Z,2.80
2019-03-29T09:13:47.918Z,3.70
2019-03-29T09:14:47.896Z,2.80
2019-03-29T09:15:47.874Z,3.50
2019-03-29T09:16:47.852Z,2.90
2019-03-29T09:17:47.829Z,4.00
2019-03-29T09:18:47.807Z,3.10
2019-03-29T09:19:47.786Z,3.10
2019-03-29T09:20:47.765Z,3.10
2019-03-29T09:21:47.741Z,4.20
2019-03-29T09:22:47.723Z,3.80
2019-03-29T09:23:47.700Z,3.20
2019-03-29T09:24:47.677Z,3.20
2019-03-29T09:25:47.654Z,4.10
2019-03-29T09:26:47.634Z,3.20
2019-03-29T09:27:47.612Z,3.70
2019-03-29T09:28:47.589Z,3.50
2019-03-29T09:29:47.570Z,3.60
2019-03-29T09:30:47.545Z,4.30
2019-03-29T09:31:47.524Z,3.00
2019-03-29T09:32:50.951Z,3.00
2019-03-29T09:33:47.485Z,3.00
2019-03-29T09:34:47.457Z,3.20
2019-03-29T09:35:47.437Z,3.70
2019-03-29T09:36:47.419Z,3.60
2019-03-29T09:37:47.395Z,2.70
2019-03-29T09:38:47.374Z,2.60
2019-03-29T09:39:47.353Z,3.00
2019-03-29T09:40:57.762Z,2.30
2019-03-29T09:41:47.311Z,3.00
2019-03-29T09:42:50.612Z,3.90
2019-03-29T09:43:47.269Z,4.00
2019-03-29T09:44:47.248Z,5.40
2019-03-29T09:45:47.234Z,3.30
2019-03-29T09:46:47.207Z,5.80
2019-03-29T09:47:47.185Z,3.00
2019-03-29T09:48:47.163Z,3.60
2019-03-29T09:49:47.140Z,3.40
2019-03-29T09:50:50.535Z,4.90
2019-03-29T09:51:47.099Z,4.00
2019-03-29T09:52:47.078Z,3.90
2019-03-29T09:53:47.056Z,4.70
2019-03-29T09:54:47.033Z,4.00
2019-03-29T09:55:47.013Z,5.70
2019-03-29T09:56:48.466Z,4.20
2019-03-29T09:57:46.972Z,4.50
2019-03-29T09:58:46.948Z,4.70
2019-03-29T09:59:46.927Z,5.00
2019-03-29T10:00:46.914Z,4.10
2019-03-29T10:01:46.883Z,4.00
2019-03-29T10:02:46.864Z,4.20
2019-03-29T10:03:46.844Z,4.40
2019-03-29T10:04:46.823Z,3.90
2019-03-29T10:05:46.799Z,5.30
2019-03-29T10:06:46.778Z,5.00
2019-03-29T10:07:46.757Z,4.10
2019-03-29T10:08:46.824Z,4.20
2019-03-29T10:09:46.714Z,6.10
2019-03-29T10:10:46.692Z,4.50
2019-03-29T10:11:46.673Z,4.90
2019-03-29T10:12:46.652Z,4.10
2019-03-29T10:13:46.629Z,4.10
2019-03-29T10:14:46.606Z,4.70
2019-03-29T10:15:46.586Z,4.20
2019-03-29T10:16:46.640Z,4.20
2019-03-29T10:17:46.543Z,4.40
2019-03-29T10:18:46.522Z,6.60
2019-03-29T10:19:49.713Z,4.70
2019-03-29T10:20:46.481Z,5.70
2019-03-29T10:21:46.459Z,4.20
2019-03-29T10:22:46.438Z,5.10
2019-03-29T10:23:46.419Z,6.70
2019-03-29T10:24:46.397Z,5.60
2019-03-29T10:25:46.374Z,6.30
2019-03-29T10:26:46.353Z,4.60
2019-03-29T10:27:46.355Z,8.30
2019-03-29T10:28:46.311Z,5.60
2019-03-29T10:29:46.291Z,5.90
2019-03-29T10:30:47.086Z,4.80
2019-03-29T10:31:46.252Z,5.40
2019-03-29T10:32:46.227Z,6.10
2019-03-29T10:33:48.878Z,7.00
2019-03-29T10:34:46.185Z,5.40
2019-03-29T10:35:52.176Z,6.10
2019-03-29T10:36:46.145Z,6.40
2019-03-29T10:37:46.123Z,6.30
2019-03-29T10:38:46.104Z,5.00
2019-03-29T10:39:46.081Z,7.20
2019-03-29T10:40:46.096Z,6.40
2019-03-29T10:41:46.038Z,6.30
2019-03-29T10:42:56.956Z,7.20
2019-03-29T10:43:45.997Z,5.50
2019-03-29T10:44:49.219Z,6.10
2019-03-29T10:45:45.957Z,8.60
2019-03-29T10:46:45.933Z,5.30
2019-03-29T10:47:45.913Z,4.80
2019-03-29T10:48:45.891Z,5.40
2019-03-29T10:49:45.870Z,5.40
2019-03-29T10:50:45.848Z,5.90
2019-03-29T10:51:45.830Z,4.80
2019-03-29T10:52:45.808Z,4.90
2019-03-29T10:53:45.787Z,4.70
2019-03-29T10:54:45.766Z,7.00
2019-03-29T10:55:45.746Z,5.60
2019-03-29T10:56:45.741Z,6.50
2019-03-29T10:57:45.703Z,5.70
2019-03-29T10:58:45.680Z,4.80
2019-03-29T10:59:45.660Z,5.50
2019-03-29T11:00:45.640Z,7.10
2019-03-29T11:01:45.617Z,6.30
2019-03-29T11:02:45.596Z,5.40
2019-03-29T11:03:45.575Z,7.00
2019-03-29T11:04:45.555Z,5.60
2019-03-29T11:05:45.537Z,5.20
2019-03-29T11:06:45.517Z,7.40
2019-03-29T11:07:45.491Z,6.30
2019-03-29T11:08:45.470Z,6.40
2019-03-29T11:09:45.451Z,7.50
2019-03-29T11:10:45.427Z,7.00
2019-03-29T11:11:45.406Z,5.70
2019-03-29T11:12:45.385Z,6.60
2019-03-29T11:13:45.368Z,6.40
2019-03-29T11:14:45.340Z,7.10
2019-03-29T11:15:45.320Z,7.40
2019-03-29T11:16:45.306Z,8.20
2019-03-29T11:17:45.279Z,7.10
2019-03-29T11:18:45.927Z,7.60
2019-03-29T11:19:45.235Z,7.20
2019-03-29T11:20:45.211Z,7.20
2019-03-29T11:21:45.188Z,7.50
2019-03-29T11:22:45.169Z,7.10
2019-03-29T11:23:45.152Z,7.00
2019-03-29T11:24:45.130Z,6.90
2019-03-29T11:25:48.381Z,7.00
2019-03-29T11:26:45.084Z,6.30
2019-03-29T11:27:45.064Z,7.70
2019-03-29T11:28:45.039Z,7.30
2019-03-29T11:29:45.022Z,7.80
2019-03-29T11:30:44.996Z,7.30
2019-03-29T11:31:44.974Z,7.10
2019-03-29T11:32:44.954Z,7.30
2019-03-29T11:33:44.931Z,7.20
2019-03-29T11:34:44.921Z,6.20
2019-03-29T11:35:44.892Z,7.70
2019-03-29T11:36:44.866Z,7.30
2019-03-29T11:37:44.844Z,8.20
2019-03-29T11:38:44.824Z,7.30
2019-03-29T11:39:44.804Z,7.80
2019-03-29T11:40:44.784Z,7.90
2019-03-29T11:41:44.760Z,8.40
2019-03-29T11:42:44.739Z,8.30
2019-03-29T11:43:44.718Z,8.30
2019-03-29T11:44:44.697Z,7.90
2019-03-29T11:45:44.674Z,8.40
2019-03-29T11:46:44.666Z,7.60
2019-03-29T11:47:44.634Z,7.80
2019-03-29T11:48:44.614Z,8.10
2019-03-29T11:49:44.594Z,8.40
2019-03-29T11:50:44.570Z,8.10
2019-03-29T11:51:44.550Z,7.40
2019-03-29T11:52:44.529Z,7.60
2019-03-29T11:53:44.507Z,8.10
2019-03-29T11:54:44.486Z,8.60
2019-03-29T11:55:44.465Z,9.10
2019-03-29T11:56:47.514Z,9.40
2019-03-29T11:57:44.421Z,9.10
2019-03-29T11:58:44.401Z,9.40
2019-03-29T11:59:44.380Z,9.10
2019-03-29T12:00:44.359Z,9.40
2019-03-29T12:01:44.335Z,10.20
2019-03-29T12:02:44.314Z,9.20
2019-03-29T12:03:44.296Z,8.60
2019-03-29T12:04:44.276Z,9.50
2019-03-29T12:05:44.248Z,9.50
2019-03-29T12:06:44.229Z,9.50
2019-03-29T12:07:44.207Z,9.00
2019-03-29T12:08:44.185Z,10.90
2019-03-29T12:09:44.164Z,8.70
2019-03-29T12:10:44.143Z,9.00
2019-03-29T12:11:44.121Z,8.70
2019-03-29T12:12:44.162Z,9.50
2019-03-29T12:13:44.077Z,9.60
2019-03-29T12:14:44.057Z,9.20
2019-03-29T12:15:44.033Z,8.40
2019-03-29T12:16:44.013Z,10.30
2019-03-29T12:17:43.992Z,10.10
2019-03-29T12:18:43.969Z,10.00
2019-03-29T12:19:43.948Z,11.20
2019-03-29T12:20:43.926Z,9.30
2019-03-29T12:21:43.905Z,8.90
2019-03-29T12:22:43.884Z,8.80
2019-03-29T12:23:43.863Z,8.80
2019-03-29T12:24:43.840Z,9.10
2019-03-29T12:25:43.820Z,8.60
2019-03-29T12:26:43.799Z,11.80
2019-03-29T12:27:43.777Z,9.50
2019-03-29T12:28:43.758Z,8.80
2019-03-29T12:29:43.733Z,8.30
2019-03-29T12:30:43.713Z,8.70
2019-03-29T12:31:43.691Z,9.80
2019-03-29T12:32:43.669Z,10.00
2019-03-29T12:33:43.649Z,8.20
2019-03-29T12:34:43.629Z,8.30
2019-03-29T12:35:43.605Z,9.00
2019-03-29T12:36:45.943Z,13.00
2019-03-29T12:37:43.562Z,8.90
2019-03-29T12:38:43.545Z,10.50
2019-03-29T12:39:43.520Z,9.50
2019-03-29T12:40:45.193Z,11.60
2019-03-29T12:41:43.476Z,11.60
2019-03-29T12:42:43.454Z,10.30
2019-03-29T12:43:55.003Z,10.60
2019-03-29T12:44:43.413Z,10.40
2019-03-29T12:45:43.390Z,10.60
2019-03-29T12:46:43.369Z,10.70
2019-03-29T12:47:43.349Z,9.30
2019-03-29T12:48:43.327Z,11.70
2019-03-29T12:49:43.307Z,10.70
2019-03-29T12:50:43.285Z,10.60
2019-03-29T12:51:46.465Z,10.00
2019-03-29T12:52:43.242Z,10.60
2019-03-29T12:53:43.219Z,10.50
2019-03-29T12:54:43.199Z,9.70
2019-03-29T12:55:43.181Z,10.90
2019-03-29T12:56:43.155Z,10.70
2019-03-29T12:57:43.134Z,9.60
2019-03-29T12:58:43.112Z,9.90
2019-03-29T12:59:43.099Z,10.50
2019-03-29T13:00:43.072Z,11.10